Terminal Aerodrome Forecast
Issued by NWS Bismarck, ND

Home | Current Version | Previous Version | Text Only | Print | Product List | Glossary Off
Versions: 1 2 3 4 5 6 7 8 9 10 11 12 13 14 15

000
FTUS43 KBIS 201042 AAA
TAFISN
TAF AMD
KISN 201042Z 2011/2106 23007KT P6SM FEW120 BKN180
     FM201400 25007KT P6SM SKC
     FM202300 24005KT P6SM FEW300=

USA.gov is the U.S. government's official web portal to all federal, state and local government web resources and services.